createdAt,value
2023-02-05T00:00:33.140Z,32.20
2023-02-05T00:01:33.154Z,32.20
2023-02-05T00:02:33.153Z,32.40
2023-02-05T00:03:33.186Z,30.40
2023-02-05T00:04:33.111Z,27.80
2023-02-05T00:05:33.383Z,31.60
2023-02-05T00:06:33.118Z,32.20
2023-02-05T00:07:33.113Z,32.40
2023-02-05T00:08:33.067Z,31.70
2023-02-05T00:09:33.036Z,31.50
2023-02-05T00:10:33.053Z,32.60
2023-02-05T00:11:33.056Z,33.00
2023-02-05T00:12:32.997Z,29.10
2023-02-05T00:13:33.012Z,32.20
2023-02-05T00:14:32.965Z,29.50
2023-02-05T00:15:37.124Z,33.50
2023-02-05T00:16:33.008Z,32.50
2023-02-05T00:17:32.963Z,35.70
2023-02-05T00:18:32.917Z,32.10
2023-02-05T00:19:32.906Z,37.70
2023-02-05T00:20:32.906Z,30.70
2023-02-05T00:21:32.979Z,29.80
2023-02-05T00:22:32.890Z,27.90
2023-02-05T00:23:32.875Z,33.70
2023-02-05T00:24:32.855Z,35.10
2023-02-05T00:25:33.029Z,35.50
2023-02-05T00:26:32.818Z,28.10
2023-02-05T00:27:32.796Z,33.30
2023-02-05T00:28:32.800Z,30.90
2023-02-05T00:29:32.800Z,33.40
2023-02-05T00:30:32.822Z,34.50
2023-02-05T00:31:32.889Z,30.10
2023-02-05T00:32:32.758Z,32.70
2023-02-05T00:33:32.747Z,35.00
2023-02-05T00:34:32.733Z,33.10
2023-02-05T00:35:33.081Z,30.20
2023-02-05T00:36:32.686Z,31.50
2023-02-05T00:37:32.705Z,31.60
2023-02-05T00:38:32.723Z,36.20
2023-02-05T00:39:32.662Z,36.10
2023-02-05T00:40:32.673Z,36.00
2023-02-05T00:41:32.638Z,35.70
2023-02-05T00:42:32.621Z,31.80
2023-02-05T00:43:32.603Z,37.20
2023-02-05T00:44:32.611Z,33.30
2023-02-05T00:45:32.863Z,34.80
2023-02-05T00:46:32.582Z,35.10
2023-02-05T00:47:32.558Z,32.10
2023-02-05T00:48:32.531Z,31.40
2023-02-05T00:49:32.526Z,35.40
2023-02-05T00:50:34.332Z,27.50
2023-02-05T00:51:32.529Z,30.10
2023-02-05T00:52:32.546Z,32.90
2023-02-05T00:53:32.486Z,37.40
2023-02-05T00:54:32.490Z,36.10
2023-02-05T00:55:32.756Z,34.60
2023-02-05T00:56:32.502Z,37.30
2023-02-05T00:57:32.440Z,34.60
2023-02-05T00:58:32.421Z,36.30
2023-02-05T00:59:32.393Z,34.90
2023-02-05T01:00:32.418Z,38.20
2023-02-05T01:01:32.452Z,34.80
2023-02-05T01:02:32.544Z,42.50
2023-02-05T01:03:32.366Z,40.70
2023-02-05T01:04:32.384Z,38.80
2023-02-05T01:05:32.655Z,39.10
2023-02-05T01:06:32.342Z,40.60
2023-02-05T01:07:32.329Z,35.50
2023-02-05T01:08:32.299Z,39.70
2023-02-05T01:09:32.271Z,32.50
2023-02-05T01:10:32.281Z,38.70
2023-02-05T01:11:32.263Z,40.90
2023-02-05T01:12:32.245Z,31.00
2023-02-05T01:13:32.239Z,29.60
2023-02-05T01:14:32.261Z,40.60
2023-02-05T01:15:32.472Z,37.20
2023-02-05T01:16:32.205Z,42.50
2023-02-05T01:17:32.183Z,41.20
2023-02-05T01:18:32.177Z,42.10
2023-02-05T01:19:32.171Z,39.90
2023-02-05T01:20:41.438Z,34.40
2023-02-05T01:21:32.148Z,40.40
2023-02-05T01:22:32.132Z,40.90
2023-02-05T01:23:32.126Z,36.50
2023-02-05T01:24:32.096Z,40.30
2023-02-05T01:25:35.130Z,45.90
2023-02-05T01:26:32.095Z,34.50
2023-02-05T01:27:32.064Z,34.70
2023-02-05T01:28:32.080Z,46.20
2023-02-05T01:29:32.034Z,37.30
2023-02-05T01:30:32.073Z,35.60
2023-02-05T01:31:32.148Z,34.60
2023-02-05T01:32:32.066Z,41.40
2023-02-05T01:33:32.001Z,36.70
2023-02-05T01:34:31.981Z,33.50
2023-02-05T01:35:32.382Z,32.80
2023-02-05T01:36:31.991Z,33.70
2023-02-05T01:37:31.946Z,34.40
2023-02-05T01:38:31.919Z,41.30
2023-02-05T01:39:31.922Z,35.60
2023-02-05T01:40:31.905Z,35.60
2023-02-05T01:41:31.869Z,36.30
2023-02-05T01:42:31.937Z,31.70
2023-02-05T01:43:31.851Z,30.50
2023-02-05T01:44:31.853Z,37.40
2023-02-05T01:45:32.262Z,35.30
2023-02-05T01:46:31.889Z,33.90
2023-02-05T01:47:31.809Z,33.10
2023-02-05T01:48:31.803Z,41.20
2023-02-05T01:49:31.764Z,34.30
2023-02-05T01:50:31.772Z,32.30
2023-02-05T01:51:31.856Z,27.50
2023-02-05T01:52:31.748Z,27.90
2023-02-05T01:53:31.742Z,29.50
2023-02-05T01:54:31.726Z,31.90
2023-02-05T01:55:32.008Z,34.70
2023-02-05T01:56:31.706Z,37.00
2023-02-05T01:57:31.698Z,36.10
2023-02-05T01:58:31.673Z,31.90
2023-02-05T01:59:31.660Z,28.90
2023-02-05T02:00:31.716Z,28.00
2023-02-05T02:01:31.702Z,39.50
2023-02-05T02:02:31.647Z,35.60
2023-02-05T02:03:31.677Z,39.20
2023-02-05T02:04:31.582Z,32.40
2023-02-05T02:05:31.758Z,31.70
2023-02-05T02:06:31.573Z,32.90
2023-02-05T02:07:31.569Z,28.60
2023-02-05T02:08:31.539Z,36.60
2023-02-05T02:09:31.524Z,34.30
2023-02-05T02:10:31.542Z,39.20
2023-02-05T02:11:31.537Z,27.60
2023-02-05T02:12:31.476Z,31.70
2023-02-05T02:13:31.500Z,33.10
2023-02-05T02:14:31.467Z,29.90
2023-02-05T02:15:31.621Z,29.50
2023-02-05T02:16:31.446Z,33.40
2023-02-05T02:17:31.428Z,35.40
2023-02-05T02:18:31.430Z,30.60
2023-02-05T02:19:31.419Z,37.70
2023-02-05T02:20:31.394Z,33.10
2023-02-05T02:21:31.448Z,33.50
2023-02-05T02:22:31.361Z,33.20
2023-02-05T02:23:31.344Z,32.40
2023-02-05T02:24:31.344Z,35.90
2023-02-05T02:25:31.451Z,31.20
2023-02-05T02:26:33.284Z,35.40
2023-02-05T02:27:31.337Z,35.20
2023-02-05T02:28:31.277Z,28.70
2023-02-05T02:29:31.317Z,28.00
2023-02-05T02:30:31.315Z,30.40
2023-02-05T02:31:31.370Z,31.80
2023-02-05T02:32:31.245Z,29.80
2023-02-05T02:33:31.240Z,35.60
2023-02-05T02:34:31.248Z,28.00
2023-02-05T02:35:31.886Z,28.70
2023-02-05T02:36:31.198Z,35.10
2023-02-05T02:37:31.166Z,32.30
2023-02-05T02:38:31.166Z,32.00
2023-02-05T02:39:31.165Z,32.50
2023-02-05T02:40:31.158Z,34.50
2023-02-05T02:41:31.151Z,34.30
2023-02-05T02:42:31.143Z,31.70
2023-02-05T02:43:31.130Z,36.00
2023-02-05T02:44:31.125Z,36.20
2023-02-05T02:45:31.158Z,32.80
2023-02-05T02:46:31.166Z,33.00
2023-02-05T02:47:31.119Z,28.80
2023-02-05T02:48:31.081Z,36.60
2023-02-05T02:49:31.062Z,29.10
2023-02-05T02:50:31.049Z,39.40
2023-02-05T02:51:31.013Z,36.50
2023-02-05T02:52:31.033Z,34.90
2023-02-05T02:53:30.981Z,33.50
2023-02-05T02:54:30.974Z,36.30
2023-02-05T02:55:31.061Z,36.30
2023-02-05T02:56:30.980Z,36.50
2023-02-05T02:57:30.938Z,38.90
2023-02-05T02:58:30.903Z,37.90
2023-02-05T02:59:30.930Z,36.40
2023-02-05T03:00:30.968Z,35.40
2023-02-05T03:01:30.881Z,43.70
2023-02-05T03:02:30.868Z,33.60
2023-02-05T03:03:30.922Z,35.70
2023-02-05T03:04:30.842Z,40.60
2023-02-05T03:05:30.856Z,40.10
2023-02-05T03:06:30.812Z,41.80
2023-02-05T03:07:30.804Z,35.50
2023-02-05T03:08:30.822Z,36.80
2023-02-05T03:09:30.790Z,45.80
2023-02-05T03:10:30.930Z,34.40
2023-02-05T03:11:30.780Z,41.00
2023-02-05T03:12:30.759Z,38.70
2023-02-05T03:13:30.738Z,37.70
2023-02-05T03:14:30.741Z,35.50
2023-02-05T03:15:30.728Z,36.50
2023-02-05T03:16:30.797Z,42.60
2023-02-05T03:17:30.671Z,40.70
2023-02-05T03:18:30.672Z,33.30
2023-02-05T03:19:30.656Z,33.40
2023-02-05T03:20:30.652Z,40.90
2023-02-05T03:21:30.645Z,40.20
2023-02-05T03:22:30.637Z,40.50
2023-02-05T03:23:30.640Z,43.00
2023-02-05T03:24:30.609Z,45.60
2023-02-05T03:25:30.583Z,36.30
2023-02-05T03:26:30.603Z,33.00
2023-02-05T03:27:30.556Z,40.20
2023-02-05T03:28:30.544Z,36.20
2023-02-05T03:29:30.519Z,40.20
2023-02-05T03:30:30.535Z,36.40
2023-02-05T03:31:30.655Z,40.30
2023-02-05T03:32:30.522Z,35.60
2023-02-05T03:33:30.480Z,40.70
2023-02-05T03:34:30.465Z,43.00
2023-02-05T03:35:30.460Z,40.20
2023-02-05T03:36:30.462Z,36.80
2023-02-05T03:37:30.458Z,40.50
2023-02-05T03:38:30.425Z,40.10
2023-02-05T03:39:30.414Z,39.20
2023-02-05T03:40:30.405Z,39.50
2023-02-05T03:41:30.385Z,36.50
2023-02-05T03:42:32.225Z,37.60
2023-02-05T03:43:30.439Z,36.20
2023-02-05T03:44:30.342Z,36.50
2023-02-05T03:45:31.109Z,36.60
2023-02-05T03:46:30.315Z,37.30
2023-02-05T03:47:30.322Z,32.00
2023-02-05T03:48:30.315Z,35.30
2023-02-05T03:49:30.308Z,33.40
2023-02-05T03:50:30.274Z,36.50
2023-02-05T03:51:30.280Z,34.60
2023-02-05T03:52:30.260Z,35.50
2023-02-05T03:53:30.260Z,38.10
2023-02-05T03:54:30.268Z,35.30
2023-02-05T03:55:30.241Z,38.60
2023-02-05T03:56:30.213Z,35.40
2023-02-05T03:57:30.186Z,39.90
2023-02-05T03:58:30.175Z,39.80
2023-02-05T03:59:30.192Z,43.10
2023-02-05T04:00:30.173Z,44.30
2023-02-05T04:01:30.143Z,43.20
2023-02-05T04:02:30.156Z,43.00
2023-02-05T04:03:30.102Z,37.30
2023-02-05T04:04:30.102Z,48.40
2023-02-05T04:05:30.115Z,47.90
2023-02-05T04:06:30.080Z,49.20
2023-02-05T04:07:30.073Z,47.80
2023-02-05T04:08:30.055Z,45.50
2023-02-05T04:09:30.082Z,51.30
2023-02-05T04:10:30.032Z,50.00
2023-02-05T04:11:30.025Z,56.40
2023-02-05T04:12:30.031Z,61.40
2023-02-05T04:13:29.974Z,63.30
2023-02-05T04:14:29.996Z,70.80
2023-02-05T04:15:29.985Z,69.70
2023-02-05T04:16:30.013Z,74.50
2023-02-05T04:17:29.966Z,84.50
2023-02-05T04:18:29.978Z,77.20
2023-02-05T04:19:29.911Z,107.30
2023-02-05T04:20:31.111Z,96.60
2023-02-05T04:21:29.952Z,88.10
2023-02-05T04:22:29.881Z,91.90
2023-02-05T04:23:29.881Z,92.30
2023-02-05T04:24:29.859Z,94.80
2023-02-05T04:25:29.849Z,92.50
2023-02-05T04:26:29.854Z,89.20
2023-02-05T04:27:29.816Z,95.50
2023-02-05T04:28:29.822Z,103.70
2023-02-05T04:29:29.820Z,109.60
2023-02-05T04:30:29.792Z,106.10
2023-02-05T04:31:29.798Z,100.20
2023-02-05T04:32:29.788Z,113.20
2023-02-05T04:33:29.769Z,127.50
2023-02-05T04:34:29.761Z,129.90
2023-02-05T04:35:29.764Z,107.60
2023-02-05T04:36:29.741Z,141.10
2023-02-05T04:37:29.709Z,105.90
2023-02-05T04:38:29.731Z,102.00
2023-02-05T04:39:29.686Z,114.30
2023-02-05T04:40:29.695Z,122.10
2023-02-05T04:41:29.682Z,118.20
2023-02-05T04:42:29.664Z,121.00
2023-02-05T04:43:29.650Z,132.10
2023-02-05T04:44:29.607Z,119.90
2023-02-05T04:45:29.642Z,126.70
2023-02-05T04:46:29.669Z,125.10
2023-02-05T04:47:29.605Z,116.80
2023-02-05T04:48:29.587Z,110.00
2023-02-05T04:49:29.568Z,132.50
2023-02-05T04:50:29.536Z,113.70
2023-02-05T04:51:29.549Z,117.70
2023-02-05T04:52:29.546Z,114.90
2023-02-05T04:53:29.553Z,146.50
2023-02-05T04:54:29.508Z,142.60
2023-02-05T04:55:32.124Z,138.60
2023-02-05T04:56:29.510Z,203.50
2023-02-05T04:57:29.453Z,139.70
2023-02-05T04:58:29.458Z,157.50
2023-02-05T04:59:29.427Z,109.50
2023-02-05T05:00:29.430Z,119.60
2023-02-05T05:01:29.501Z,156.20
2023-02-05T05:02:29.424Z,271.10
2023-02-05T05:03:29.379Z,133.70
2023-02-05T05:04:29.356Z,103.50
2023-02-05T05:05:29.384Z,156.40
2023-02-05T05:06:29.394Z,177.50
2023-02-05T05:07:29.358Z,122.70
2023-02-05T05:08:29.333Z,157.60
2023-02-05T05:09:29.324Z,126.30
2023-02-05T05:10:29.300Z,130.10
2023-02-05T05:11:29.288Z,140.70
2023-02-05T05:12:29.288Z,184.70
2023-02-05T05:13:29.292Z,137.50
2023-02-05T05:14:29.297Z,124.00
2023-02-05T05:15:29.243Z,108.40
2023-02-05T05:16:29.219Z,149.60
2023-02-05T05:17:29.202Z,116.70
2023-02-05T05:18:29.220Z,147.50
2023-02-05T05:19:29.199Z,146.00
2023-02-05T05:20:29.203Z,128.00
2023-02-05T05:21:29.162Z,120.70
2023-02-05T05:22:29.146Z,120.60
2023-02-05T05:23:29.204Z,119.20
2023-02-05T05:24:29.185Z,113.60
2023-02-05T05:25:29.152Z,112.90
2023-02-05T05:26:29.093Z,110.60
2023-02-05T05:27:29.130Z,120.60
2023-02-05T05:28:29.100Z,124.20
2023-02-05T05:29:29.067Z,124.00
2023-02-05T05:30:29.097Z,151.00
2023-02-05T05:31:29.037Z,114.20
2023-02-05T05:32:29.084Z,99.00
2023-02-05T05:33:29.086Z,108.30
2023-02-05T05:34:29.091Z,104.10
2023-02-05T05:35:29.003Z,102.70
2023-02-05T05:36:29.003Z,116.50
2023-02-05T05:37:28.981Z,125.90
2023-02-05T05:38:28.960Z,123.00
2023-02-05T05:39:29.002Z,111.90
2023-02-05T05:40:28.943Z,116.10
2023-02-05T05:41:28.960Z,120.20
2023-02-05T05:42:28.935Z,117.00
2023-02-05T05:43:28.919Z,116.50
2023-02-05T05:44:28.875Z,123.50
2023-02-05T05:45:28.907Z,170.40
2023-02-05T05:46:28.886Z,111.50
2023-02-05T05:47:28.847Z,112.00
2023-02-05T05:48:28.866Z,147.40
2023-02-05T05:49:28.838Z,211.60
2023-02-05T05:50:28.824Z,112.70
2023-02-05T05:51:28.846Z,102.30
2023-02-05T05:52:30.879Z,106.60
2023-02-05T05:53:28.793Z,121.80
2023-02-05T05:54:28.787Z,122.90
2023-02-05T05:55:28.764Z,157.50
2023-02-05T05:56:28.796Z,98.80
2023-02-05T05:57:28.749Z,123.90
2023-02-05T05:58:28.725Z,149.20
2023-02-05T05:59:28.717Z,136.20
2023-02-05T06:00:28.749Z,111.40
2023-02-05T06:01:28.694Z,97.30
2023-02-05T06:02:28.843Z,172.10
2023-02-05T06:03:28.664Z,119.20
2023-02-05T06:04:28.667Z,106.00
2023-02-05T06:05:28.733Z,108.20
2023-02-05T06:06:28.636Z,132.00
2023-02-05T06:07:28.635Z,126.80
2023-02-05T06:08:28.696Z,122.70
2023-02-05T06:09:28.597Z,137.70
2023-02-05T06:10:28.574Z,94.20
2023-02-05T06:11:28.578Z,106.30
2023-02-05T06:12:28.553Z,123.80
2023-02-05T06:13:28.555Z,109.20
2023-02-05T06:14:28.508Z,116.50
2023-02-05T06:15:28.504Z,92.00
2023-02-05T06:16:28.485Z,108.40
2023-02-05T06:17:28.475Z,100.20
2023-02-05T06:18:28.521Z,107.70
2023-02-05T06:19:28.475Z,108.50
2023-02-05T06:20:28.466Z,102.10
2023-02-05T06:21:28.465Z,109.60
2023-02-05T06:22:28.416Z,103.20
2023-02-05T06:23:28.430Z,94.90
2023-02-05T06:24:30.958Z,100.00
2023-02-05T06:25:28.382Z,113.50
2023-02-05T06:26:28.382Z,115.40
2023-02-05T06:27:28.409Z,108.20
2023-02-05T06:28:28.386Z,99.20
2023-02-05T06:29:28.340Z,97.60
2023-02-05T06:30:28.337Z,102.80
2023-02-05T06:31:28.423Z,112.60
2023-02-05T06:32:28.317Z,98.00
2023-02-05T06:33:28.332Z,89.70
2023-02-05T06:34:28.270Z,97.20
2023-02-05T06:35:28.304Z,89.00
2023-02-05T06:36:28.288Z,99.70
2023-02-05T06:37:45.462Z,103.80
2023-02-05T06:38:29.232Z,108.50
2023-02-05T06:39:28.242Z,107.10
2023-02-05T06:40:28.224Z,86.80
2023-02-05T06:41:28.211Z,89.10
2023-02-05T06:42:28.237Z,85.60
2023-02-05T06:43:28.323Z,104.40
2023-02-05T06:44:28.188Z,130.00
2023-02-05T06:45:28.154Z,106.10
2023-02-05T06:46:28.159Z,129.60
2023-02-05T06:47:28.146Z,99.00
2023-02-05T06:48:28.123Z,95.90
2023-02-05T06:49:28.149Z,72.10
2023-02-05T06:50:28.082Z,69.20
2023-02-05T06:51:28.086Z,74.90
2023-02-05T06:52:28.047Z,61.40
2023-02-05T06:53:28.060Z,67.20
2023-02-05T06:54:28.048Z,61.30
2023-02-05T06:55:28.059Z,65.80
2023-02-05T06:56:28.025Z,66.30
2023-02-05T06:57:28.015Z,56.30
2023-02-05T06:58:28.024Z,60.20
2023-02-05T06:59:27.987Z,63.80
2023-02-05T07:00:27.979Z,66.00
2023-02-05T07:01:28.002Z,65.60
2023-02-05T07:02:28.015Z,64.00
2023-02-05T07:03:27.934Z,61.80
2023-02-05T07:04:27.926Z,62.00
2023-02-05T07:05:27.918Z,58.90
2023-02-05T07:06:27.917Z,58.90
2023-02-05T07:07:27.888Z,61.40
2023-02-05T07:08:27.928Z,54.20
2023-02-05T07:09:27.885Z,59.70
2023-02-05T07:10:27.859Z,59.50
2023-02-05T07:11:27.866Z,61.50
2023-02-05T07:12:27.830Z,58.90
2023-02-05T07:13:27.828Z,59.70
2023-02-05T07:14:27.809Z,59.50
2023-02-05T07:15:27.801Z,65.20
2023-02-05T07:16:27.772Z,61.90
2023-02-05T07:17:27.816Z,61.60
2023-02-05T07:18:27.757Z,64.80
2023-02-05T07:19:27.750Z,64.40
2023-02-05T07:20:27.729Z,52.50
2023-02-05T07:21:27.729Z,56.50
2023-02-05T07:22:27.716Z,56.30
2023-02-05T07:23:27.727Z,53.40
2023-02-05T07:24:27.699Z,58.10
2023-02-05T07:25:35.486Z,50.50
2023-02-05T07:26:27.653Z,52.00
2023-02-05T07:27:27.741Z,50.90
2023-02-05T07:28:28.280Z,56.00
2023-02-05T07:29:27.629Z,54.90
2023-02-05T07:30:27.861Z,51.40
2023-02-05T07:31:27.889Z,46.20
2023-02-05T07:32:27.581Z,52.10
2023-02-05T07:33:27.602Z,42.20
2023-02-05T07:34:27.671Z,44.40
2023-02-05T07:35:27.782Z,43.80
2023-02-05T07:36:27.600Z,42.50
2023-02-05T07:37:27.521Z,43.30
2023-02-05T07:38:27.625Z,39.80
2023-02-05T07:39:27.575Z,42.50
2023-02-05T07:40:27.518Z,35.80
2023-02-05T07:41:27.503Z,42.70
2023-02-05T07:42:27.480Z,37.90
2023-02-05T07:43:27.454Z,38.80
2023-02-05T07:44:27.416Z,39.60
2023-02-05T07:45:27.437Z,42.00
2023-02-05T07:46:27.409Z,41.50
2023-02-05T07:47:27.375Z,38.60
2023-02-05T07:48:27.386Z,38.20
2023-02-05T07:49:27.384Z,43.60
2023-02-05T07:50:27.371Z,54.10
2023-02-05T07:51:27.365Z,51.30
2023-02-05T07:52:27.345Z,48.60
2023-02-05T07:53:27.298Z,49.40
2023-02-05T07:54:27.313Z,43.70
2023-02-05T07:55:27.286Z,40.60
2023-02-05T07:56:27.294Z,40.10
2023-02-05T07:57:27.294Z,40.00
2023-02-05T07:58:27.271Z,44.00
2023-02-05T07:59:27.272Z,35.90
2023-02-05T08:00:27.227Z,35.60
2023-02-05T08:01:27.226Z,34.40
2023-02-05T08:02:27.201Z,31.80
2023-02-05T08:03:27.218Z,33.50
2023-02-05T08:04:27.229Z,34.60
2023-02-05T08:05:27.178Z,35.80
2023-02-05T08:06:27.174Z,39.20
2023-02-05T08:07:27.808Z,35.00
2023-02-05T08:08:27.128Z,32.10
2023-02-05T08:09:27.111Z,29.90
2023-02-05T08:10:27.130Z,30.60
2023-02-05T08:11:27.103Z,32.70
2023-02-05T08:12:27.085Z,34.20
2023-02-05T08:13:27.061Z,32.20
2023-02-05T08:14:27.062Z,26.10
2023-02-05T08:15:27.046Z,23.80
2023-02-05T08:16:27.065Z,23.00
2023-02-05T08:17:27.013Z,17.90
2023-02-05T08:18:27.006Z,15.20
2023-02-05T08:19:27.004Z,17.70
2023-02-05T08:20:27.001Z,14.90
2023-02-05T08:21:27.019Z,15.40
2023-02-05T08:22:26.983Z,15.60
2023-02-05T08:23:26.935Z,13.50
2023-02-05T08:24:26.935Z,11.10
2023-02-05T08:25:26.930Z,9.20
2023-02-05T08:26:26.910Z,9.00
2023-02-05T08:27:29.332Z,9.20
2023-02-05T08:28:26.924Z,10.80
2023-02-05T08:29:26.853Z,8.80
2023-02-05T08:30:26.944Z,8.30
2023-02-05T08:31:26.925Z,9.30
2023-02-05T08:32:26.858Z,9.60
2023-02-05T08:33:26.821Z,7.50
2023-02-05T08:34:26.839Z,6.10
2023-02-05T08:35:26.798Z,7.10
2023-02-05T08:36:26.796Z,6.00
2023-02-05T08:37:26.764Z,6.70
2023-02-05T08:38:26.796Z,4.60
2023-02-05T08:39:26.738Z,4.80
2023-02-05T08:40:26.797Z,3.70
2023-02-05T08:41:26.802Z,5.00
2023-02-05T08:42:26.734Z,3.40
2023-02-05T08:43:26.720Z,3.30
2023-02-05T08:44:26.713Z,1.60
2023-02-05T08:45:26.717Z,2.20
2023-02-05T08:46:31.624Z,3.10
2023-02-05T08:47:27.642Z,2.60
2023-02-05T08:48:26.639Z,2.40
2023-02-05T08:49:26.642Z,4.00
2023-02-05T08:50:26.604Z,4.00
2023-02-05T08:51:26.819Z,3.40
2023-02-05T08:52:26.587Z,2.50
2023-02-05T08:53:26.566Z,1.70
2023-02-05T08:54:26.567Z,2.80
2023-02-05T08:55:26.533Z,3.10
2023-02-05T08:56:26.562Z,3.70
2023-02-05T08:57:26.518Z,3.50
2023-02-05T08:58:26.532Z,2.90
2023-02-05T08:59:26.496Z,2.20
2023-02-05T09:00:26.490Z,4.20
2023-02-05T09:01:26.493Z,3.00
2023-02-05T09:02:29.418Z,1.20
2023-02-05T09:03:26.441Z,2.70
2023-02-05T09:04:26.496Z,3.20
2023-02-05T09:05:26.414Z,2.60
2023-02-05T09:06:26.397Z,2.40
2023-02-05T09:07:26.374Z,2.70
2023-02-05T09:08:26.730Z,2.80
2023-02-05T09:09:26.479Z,4.00
2023-02-05T09:10:26.358Z,2.60
2023-02-05T09:11:26.336Z,1.50
2023-02-05T09:12:26.338Z,3.40
2023-02-05T09:13:26.315Z,2.70
2023-02-05T09:14:26.332Z,1.00
2023-02-05T09:15:26.287Z,4.20
2023-02-05T09:16:26.349Z,2.60
2023-02-05T09:17:26.262Z,4.30
2023-02-05T09:18:26.260Z,2.10
2023-02-05T09:19:26.275Z,2.90
2023-02-05T09:20:26.239Z,3.30
2023-02-05T09:21:26.247Z,3.20
2023-02-05T09:22:26.210Z,2.50
2023-02-05T09:23:26.180Z,1.60
2023-02-05T09:24:26.190Z,3.30
2023-02-05T09:25:26.222Z,3.40
2023-02-05T09:26:26.161Z,4.20
2023-02-05T09:27:26.334Z,2.60
2023-02-05T09:28:26.159Z,2.90
2023-02-05T09:29:26.197Z,4.90
2023-02-05T09:30:26.126Z,2.10
2023-02-05T09:31:26.289Z,3.40
2023-02-05T09:32:26.123Z,7.20
2023-02-05T09:33:26.067Z,2.30
2023-02-05T09:34:26.048Z,2.90
2023-02-05T09:35:26.056Z,4.90
2023-02-05T09:36:26.026Z,5.30
2023-02-05T09:37:26.007Z,3.60
2023-02-05T09:38:26.067Z,4.30
2023-02-05T09:40:11.888Z,5.40
2023-02-05T09:40:28.418Z,2.80
2023-02-05T09:41:25.990Z,5.80
2023-02-05T09:42:26.034Z,4.90
2023-02-05T09:43:26.144Z,7.00
2023-02-05T09:44:25.936Z,5.70
2023-02-05T09:45:25.929Z,5.50
2023-02-05T09:46:25.911Z,7.10
2023-02-05T09:47:25.902Z,7.30
2023-02-05T09:48:25.881Z,5.10
2023-02-05T09:49:25.889Z,5.60
2023-02-05T09:50:25.871Z,7.90
2023-02-05T09:51:25.851Z,4.90
2023-02-05T09:52:25.850Z,6.40
2023-02-05T09:53:25.806Z,6.10
2023-02-05T09:54:25.822Z,6.50
2023-02-05T09:55:25.819Z,8.70
2023-02-05T09:56:25.786Z,6.60
2023-02-05T09:57:25.763Z,7.90
2023-02-05T09:58:25.843Z,6.70
2023-02-05T09:59:25.762Z,7.00
2023-02-05T10:00:25.771Z,9.70
2023-02-05T10:01:25.729Z,7.90
2023-02-05T10:02:25.717Z,5.80
2023-02-05T10:03:25.727Z,9.50
2023-02-05T10:04:25.728Z,10.00
2023-02-05T10:05:25.724Z,10.50
2023-02-05T10:06:25.675Z,8.10
2023-02-05T10:07:25.662Z,6.00
2023-02-05T10:08:25.634Z,11.30
2023-02-05T10:09:25.646Z,10.50
2023-02-05T10:10:25.597Z,5.50
2023-02-05T10:11:25.623Z,10.90
2023-02-05T10:12:25.660Z,10.10
2023-02-05T10:13:25.578Z,10.70
2023-02-05T10:14:25.547Z,8.30
2023-02-05T10:15:25.573Z,9.50
2023-02-05T10:16:25.529Z,8.80
2023-02-05T10:17:25.518Z,8.40
2023-02-05T10:18:25.547Z,10.40
2023-02-05T10:19:25.502Z,8.00
2023-02-05T10:20:25.483Z,8.90
2023-02-05T10:21:25.506Z,6.40
2023-02-05T10:22:25.466Z,9.90
2023-02-05T10:23:25.489Z,7.70
2023-02-05T10:24:25.436Z,8.60
2023-02-05T10:25:25.421Z,9.80
2023-02-05T10:26:25.406Z,9.10
2023-02-05T10:27:25.387Z,9.20
2023-02-05T10:28:25.393Z,7.60
2023-02-05T10:29:25.390Z,10.20
2023-02-05T10:30:25.367Z,10.50
2023-02-05T10:31:25.495Z,8.90
2023-02-05T10:32:25.336Z,8.30
2023-02-05T10:33:25.335Z,6.50
2023-02-05T10:34:25.338Z,7.70
2023-02-05T10:35:25.300Z,8.80
2023-02-05T10:36:25.284Z,6.20
2023-02-05T10:37:25.272Z,9.00
2023-02-05T10:38:25.326Z,7.90
2023-02-05T10:39:25.279Z,8.10
2023-02-05T10:40:25.278Z,7.40
2023-02-05T10:41:25.222Z,8.70
2023-02-05T10:42:25.220Z,9.30
2023-02-05T10:43:25.205Z,7.40
2023-02-05T10:44:25.181Z,7.60
2023-02-05T10:45:25.223Z,7.60
2023-02-05T10:46:25.237Z,9.70
2023-02-05T10:47:25.142Z,7.20
2023-02-05T10:48:25.176Z,8.70
2023-02-05T10:49:25.132Z,6.90
2023-02-05T10:50:25.142Z,6.40
2023-02-05T10:51:25.113Z,10.00
2023-02-05T10:52:25.100Z,8.00
2023-02-05T10:53:25.072Z,8.00
2023-02-05T10:54:25.078Z,7.80
2023-02-05T10:55:25.070Z,6.00
2023-02-05T10:56:25.042Z,9.00
2023-02-05T10:57:25.078Z,7.20
2023-02-05T10:58:25.038Z,7.70
2023-02-05T10:59:26.355Z,9.30
2023-02-05T11:00:24.988Z,7.40
2023-02-05T11:01:25.027Z,7.70
2023-02-05T11:02:25.002Z,8.70
2023-02-05T11:03:24.956Z,9.00
2023-02-05T11:04:24.969Z,12.40
2023-02-05T11:05:24.921Z,8.40
2023-02-05T11:06:24.927Z,7.40
2023-02-05T11:07:24.908Z,10.10
2023-02-05T11:08:24.898Z,9.10
2023-02-05T11:09:24.904Z,8.70
2023-02-05T11:10:24.934Z,7.00
2023-02-05T11:11:24.878Z,10.10
2023-02-05T11:12:24.841Z,10.90
2023-02-05T11:13:24.833Z,6.50
2023-02-05T11:14:24.816Z,9.60
2023-02-05T11:15:24.828Z,9.20
2023-02-05T11:16:24.791Z,8.60
2023-02-05T11:17:24.795Z,9.20
2023-02-05T11:18:24.787Z,11.20
2023-02-05T11:19:24.775Z,7.40
2023-02-05T11:20:24.748Z,6.70
2023-02-05T11:21:24.729Z,7.20
2023-02-05T11:22:24.744Z,6.90
2023-02-05T11:23:24.721Z,8.80
2023-02-05T11:24:24.684Z,8.50
2023-02-05T11:25:24.695Z,8.20
2023-02-05T11:26:24.676Z,11.00
2023-02-05T11:27:24.709Z,8.70
2023-02-05T11:28:24.681Z,9.80
2023-02-05T11:29:24.636Z,6.40
2023-02-05T11:30:47.599Z,9.30
2023-02-05T11:31:25.716Z,7.50
2023-02-05T11:32:24.667Z,8.20
2023-02-05T11:33:24.677Z,7.30
2023-02-05T11:34:24.576Z,9.60
2023-02-05T11:35:24.633Z,7.80
2023-02-05T11:36:24.645Z,10.30
2023-02-05T11:37:24.540Z,7.80
2023-02-05T11:38:24.528Z,6.80
2023-02-05T11:39:24.540Z,6.70
2023-02-05T11:40:24.795Z,8.70
2023-02-05T11:41:24.739Z,8.60
2023-02-05T11:42:24.544Z,9.40
2023-02-05T11:43:24.473Z,6.30
2023-02-05T11:44:24.434Z,8.50
2023-02-05T11:45:24.480Z,8.10
2023-02-05T11:46:24.862Z,7.80
2023-02-05T11:47:24.393Z,9.00
2023-02-05T11:48:24.433Z,8.30
2023-02-05T11:49:24.573Z,5.80
2023-02-05T11:50:24.404Z,8.10
2023-02-05T11:51:24.376Z,6.50
2023-02-05T11:52:24.409Z,5.30
2023-02-05T11:53:24.336Z,9.10
2023-02-05T11:54:24.321Z,7.20
2023-02-05T11:55:24.399Z,6.80
2023-02-05T11:56:25.354Z,8.30
2023-02-05T11:57:24.320Z,10.60
2023-02-05T11:58:34.945Z,7.80
2023-02-05T11:59:25.299Z,6.10
2023-02-05T12:00:24.304Z,7.90
2023-02-05T12:01:24.303Z,8.50
2023-02-05T12:02:24.336Z,5.80
2023-02-05T12:03:24.272Z,6.90
2023-02-05T12:04:24.209Z,7.80
2023-02-05T12:05:24.209Z,6.50
2023-02-05T12:06:24.185Z,5.20
2023-02-05T12:07:24.552Z,4.30
2023-02-05T12:08:24.289Z,5.80
2023-02-05T12:09:24.357Z,5.80
2023-02-05T12:10:24.133Z,5.20
2023-02-05T12:11:24.154Z,5.60
2023-02-05T12:12:24.172Z,5.80
2023-02-05T12:13:24.120Z,5.30
2023-02-05T12:14:24.145Z,6.40
2023-02-05T12:15:24.064Z,5.10
2023-02-05T12:16:24.123Z,7.20
2023-02-05T12:17:24.045Z,5.80
2023-02-05T12:18:24.138Z,4.80
2023-02-05T12:19:24.066Z,3.30
2023-02-05T12:20:24.045Z,5.90
2023-02-05T12:21:24.958Z,4.70
2023-02-05T12:22:24.140Z,4.30
2023-02-05T12:23:23.977Z,6.20
2023-02-05T12:24:23.957Z,5.00
2023-02-05T12:25:23.996Z,5.40
2023-02-05T12:26:23.938Z,4.80
2023-02-05T12:27:23.982Z,4.30
2023-02-05T12:28:24.005Z,8.20
2023-02-05T12:29:23.996Z,6.30
2023-02-05T12:30:23.927Z,5.10
2023-02-05T12:31:23.933Z,7.10
2023-02-05T12:32:23.841Z,6.10
2023-02-05T12:33:23.894Z,3.60
2023-02-05T12:34:23.879Z,5.70
2023-02-05T12:35:23.832Z,5.50
2023-02-05T12:36:23.866Z,5.30
2023-02-05T12:37:24.127Z,6.40
2023-02-05T12:38:32.121Z,5.50
2023-02-05T12:39:24.771Z,6.20
2023-02-05T12:40:23.770Z,4.80
2023-02-05T12:41:23.745Z,7.90
2023-02-05T12:42:23.715Z,5.60
2023-02-05T12:43:23.721Z,4.40
2023-02-05T12:44:23.727Z,4.70
2023-02-05T12:45:23.683Z,5.50
2023-02-05T12:46:23.699Z,9.00
2023-02-05T12:47:23.653Z,5.30
2023-02-05T12:48:23.643Z,5.70
2023-02-05T12:49:23.701Z,5.80
2023-02-05T12:50:23.625Z,3.40
2023-02-05T12:51:23.620Z,4.50
2023-02-05T12:52:23.616Z,5.40
2023-02-05T12:53:23.584Z,4.50
2023-02-05T12:54:23.607Z,6.80
2023-02-05T12:55:23.604Z,5.00
2023-02-05T12:56:23.557Z,6.00